Terminal Aerodrome Forecast
Issued by NWS

Home | Current Version | Previous Version | Graphics & Text | Print | Product List | Glossary On
Versions: 1 2 3 4 5 6 7 8 9 10 11 12 13 14
667
FTUS43 KTOP 212324
TAFFOE
TAF
KFOE 212324Z 2200/2224 18016G23KT P6SM SCT150
     FM220100 19011KT P6SM SCT250
     FM220300 18007KT P6SM SCT250 WS010/20035KT
     FM221400 18013KT P6SM FEW120 SCT250=

USA.gov is the U.S. government's official web portal to all federal, state and local government web resources and services.